Time;durP1;ratioP1;P1;durP2;ratioP2;P2;SDS_P1;SDS_P2;PMS_P1;PMS_P2;Temp;Humidity;BMP_temperature;BMP_pressure;BME280_temperature;BME280_humidity;BME280_pressure;Samples;Min_cycle;Max_cycle;Signal;HPM_P1;HPM_P2
2022/08/27 00:01:15;;;;;;;22.75;11.38;;;;;;;18.99;100.00;98721.06;5081476;28;20064;-77
2022/08/27 00:03:44;;;;;;;27.45;12.27;;;;;;;18.99;100.00;98701.78;5080641;28;20074;-77
2022/08/27 00:06:13;;;;;;;22.55;12.02;;;;;;;19.00;100.00;98708.97;5092531;28;20044;-77
2022/08/27 00:08:41;;;;;;;23.48;11.90;;;;;;;18.99;100.00;98710.03;5088941;28;20072;-77
2022/08/27 00:11:09;;;;;;;18.33;11.80;;;;;;;18.94;100.00;98693.44;5088139;28;20051;-77
2022/08/27 00:13:35;;;;;;;23.45;12.68;;;;;;;18.96;100.00;98698.72;5088891;28;20067;-77
2022/08/27 00:16:02;;;;;;;18.40;11.48;;;;;;;18.99;100.00;98695.44;5089613;28;20048;-77
2022/08/27 00:18:29;;;;;;;21.55;11.15;;;;;;;19.08;100.00;98708.53;5087935;28;20439;-77
2022/08/27 00:20:55;;;;;;;18.65;11.32;;;;;;;19.14;100.00;98703.94;5091651;28;20036;-77
2022/08/27 00:23:22;;;;;;;16.95;12.02;;;;;;;19.13;100.00;98710.53;5091794;28;20058;-77
2022/08/27 00:25:48;;;;;;;18.88;12.95;;;;;;;19.06;100.00;98718.16;5089831;28;20584;-77
2022/08/27 00:28:16;;;;;;;22.42;12.73;;;;;;;18.98;100.00;98713.06;5087429;28;20044;-77
2022/08/27 00:30:43;;;;;;;20.45;12.43;;;;;;;19.00;100.00;98719.13;5085391;28;20044;-77
2022/08/27 00:33:10;;;;;;;21.17;12.70;;;;;;;19.13;100.00;98720.72;5087675;28;20074;-77
2022/08/27 00:35:37;;;;;;;18.70;12.93;;;;;;;19.02;100.00;98712.28;5085420;28;20044;-77
2022/08/27 00:38:04;;;;;;;22.42;13.25;;;;;;;19.06;100.00;98712.66;5088222;28;20043;-77
2022/08/27 00:40:32;;;;;;;20.45;13.75;;;;;;;19.10;100.00;98708.28;5090885;28;20070;-77
2022/08/27 00:43:01;;;;;;;18.33;11.95;;;;;;;19.07;100.00;98711.53;5081654;28;20396;-77
2022/08/27 00:45:32;;;;;;;21.40;12.27;;;;;;;18.99;100.00;98689.94;5091878;28;20094;-77
2022/08/27 00:48:00;;;;;;;18.60;11.95;;;;;;;18.90;100.00;98700.53;5089319;28;20044;-77
2022/08/27 00:50:34;;;;;;;17.98;11.68;;;;;;;18.95;100.00;98711.63;5089580;28;20077;-77
2022/08/27 00:53:03;;;;;;;22.40;13.07;;;;;;;18.87;100.00;98698.28;5091187;28;20048;-77
2022/08/27 00:55:34;;;;;;;22.33;12.50;;;;;;;18.93;100.00;98706.38;5089968;28;20294;-77
2022/08/27 00:58:16;;;;;;;19.52;13.50;;;;;;;18.96;100.00;98702.28;5089101;28;20105;-78
2022/08/27 01:00:46;;;;;;;23.08;13.95;;;;;;;19.00;100.00;98703.47;5086721;28;20059;-77
2022/08/27 01:03:13;;;;;;;21.63;13.77;;;;;;;18.91;100.00;98697.53;5079631;28;20043;-77
2022/08/27 01:05:40;;;;;;;24.42;15.43;;;;;;;18.90;100.00;98678.50;5089342;28;20055;-77
2022/08/27 01:08:11;;;;;;;27.75;16.38;;;;;;;19.09;100.00;98703.88;5087899;28;20050;-77
2022/08/27 01:10:39;;;;;;;22.58;16.38;;;;;;;19.05;100.00;98684.25;5088417;28;20105;-77
2022/08/27 01:13:07;;;;;;;24.30;15.80;;;;;;;19.09;100.00;98677.16;5089665;28;20044;-77
2022/08/27 01:15:33;;;;;;;28.30;16.15;;;;;;;19.29;100.00;98697.81;5088410;28;20040;-77
2022/08/27 01:18:04;;;;;;;26.83;16.95;;;;;;;19.26;100.00;98692.81;5089503;28;20514;-77
2022/08/27 01:20:38;;;;;;;24.92;16.67;;;;;;;19.13;100.00;98688.50;5089956;28;20490;-77
2022/08/27 01:23:11;;;;;;;25.25;16.13;;;;;;;19.14;100.00;98695.69;5089004;28;20044;-77
2022/08/27 01:25:41;;;;;;;30.35;17.35;;;;;;;19.08;100.00;98686.50;5090692;28;20056;-77
2022/08/27 01:28:08;;;;;;;;;;;;;;;19.16;100.00;98689.91;5090044;28;20506;-77
2022/08/27 01:30:35;;;;;;;27.55;16.45;;;;;;;19.09;100.00;98690.94;5089434;28;20307;-77
2022/08/27 01:33:09;;;;;;;30.73;17.02;;;;;;;19.14;100.00;98686.59;5081945;28;20551;-77
2022/08/27 01:35:35;;;;;;;29.45;18.05;;;;;;;19.13;100.00;98695.94;5083815;28;20151;-77
2022/08/27 01:38:02;;;;;;;24.83;18.17;;;;;;;19.23;100.00;98698.84;5091162;28;20056;-77
2022/08/27 01:40:29;;;;;;;29.08;19.25;;;;;;;19.14;100.00;98694.84;5090422;28;20058;-77
2022/08/27 01:42:57;;;;;;;29.58;19.98;;;;;;;19.09;100.00;98707.44;5088994;28;20043;-77
2022/08/27 01:45:27;;;;;;;29.33;18.60;;;;;;;18.81;100.00;98685.50;5090315;28;20044;-77
2022/08/27 01:47:53;;;;;;;34.63;19.83;;;;;;;18.85;100.00;98698.53;5086366;28;20058;-77
2022/08/27 01:50:22;;;;;;;34.28;21.70;;;;;;;18.83;100.00;98703.41;5087969;28;20051;-77
2022/08/27 01:52:49;;;;;;;35.40;21.80;;;;;;;18.90;100.00;98709.63;5088357;28;20056;-77
2022/08/27 01:55:19;;;;;;;32.92;21.00;;;;;;;18.91;100.00;98694.78;5089312;28;20048;-77
2022/08/27 01:57:46;;;;;;;37.28;22.60;;;;;;;18.96;100.00;98696.78;5087574;28;20044;-77
2022/08/27 02:00:18;;;;;;;34.80;22.13;;;;;;;19.08;100.00;98694.75;5088624;28;20068;-77
2022/08/27 02:02:45;;;;;;;37.03;22.42;;;;;;;19.08;100.00;98688.41;5086245;28;20047;-77
2022/08/27 02:05:13;;;;;;;32.03;23.23;;;;;;;19.17;100.00;98700.69;5087644;28;20051;-77
2022/08/27 02:07:40;;;;;;;32.72;23.85;;;;;;;19.13;100.00;98696.75;5086687;28;20056;-77
2022/08/27 02:10:10;;;;;;;34.67;22.40;;;;;;;19.00;100.00;98691.59;5087504;28;20442;-77
2022/08/27 02:12:36;;;;;;;34.28;22.77;;;;;;;19.06;100.00;98687.84;5088417;28;20044;-77
2022/08/27 02:15:04;;;;;;;30.30;21.98;;;;;;;18.97;100.00;98684.69;5088742;28;20055;-77
2022/08/27 02:17:33;;;;;;;32.28;21.38;;;;;;;19.01;100.00;98687.75;5087334;28;20081;-77
2022/08/27 02:20:00;;;;;;;34.33;22.15;;;;;;;18.93;100.00;98675.25;5087650;28;20051;-77
2022/08/27 02:22:26;;;;;;;30.15;20.15;;;;;;;18.89;100.00;98677.69;5087950;28;20052;-77
2022/08/27 02:24:53;;;;;;;35.47;21.70;;;;;;;18.92;100.00;98687.34;5090344;28;20411;-77
2022/08/27 02:27:20;;;;;;;30.45;21.50;;;;;;;18.93;100.00;98689.84;5085191;28;20058;-77
2022/08/27 02:29:47;;;;;;;32.90;21.95;;;;;;;18.89;100.00;98683.19;5084638;28;20109;-77
2022/08/27 02:32:13;;;;;;;34.65;21.50;;;;;;;18.94;100.00;98687.94;5089471;28;20123;-77
2022/08/27 02:34:41;;;;;;;36.53;23.50;;;;;;;18.98;100.00;98689.09;5087830;28;20048;-77
2022/08/27 02:37:08;;;;;;;32.10;22.10;;;;;;;19.06;100.00;98685.09;5088971;28;20044;-77
2022/08/27 02:39:35;;;;;;;40.72;24.35;;;;;;;19.05;100.00;98678.72;5088137;28;20048;-77
2022/08/27 02:42:01;;;;;;;39.72;25.02;;;;;;;19.04;100.00;98671.53;5092091;28;20040;-77
2022/08/27 02:44:28;;;;;;;37.00;24.55;;;;;;;19.19;100.00;98681.13;5090815;28;20059;-77
2022/08/27 02:46:55;;;;;;;36.05;26.02;;;;;;;19.10;100.00;98681.59;5086041;28;20052;-77
2022/08/27 02:49:21;;;;;;;37.17;25.45;;;;;;;19.03;100.00;98683.66;5091553;28;20048;-77
2022/08/27 02:51:53;;;;;;;37.50;25.10;;;;;;;18.86;100.00;98689.19;5092556;28;20048;-77
2022/08/27 02:54:20;;;;;;;41.53;26.45;;;;;;;18.87;100.00;98690.03;5090440;28;20179;-77
2022/08/27 02:56:46;;;;;;;38.30;24.95;;;;;;;18.78;100.00;98683.25;5087857;28;20048;-77
2022/08/27 02:59:13;;;;;;;36.63;24.95;;;;;;;18.73;100.00;98679.31;5089288;28;20044;-77
2022/08/27 03:01:40;;;;;;;38.45;26.15;;;;;;;18.89;100.00;98694.19;5089895;28;20044;-77
2022/08/27 03:04:06;;;;;;;43.95;26.50;;;;;;;18.83;100.00;98697.06;5090127;28;20044;-77
2022/08/27 03:06:33;;;;;;;36.22;26.10;;;;;;;18.81;100.00;98696.50;5093966;28;20058;-77
2022/08/27 03:09:01;;;;;;;43.20;27.20;;;;;;;18.77;100.00;98698.91;5088480;28;20048;-77
2022/08/27 03:11:28;;;;;;;47.05;27.48;;;;;;;18.64;100.00;98694.56;5088403;28;20089;-77
2022/08/27 03:13:54;;;;;;;41.80;29.13;;;;;;;18.65;100.00;98701.75;5081696;28;20128;-77
2022/08/27 03:16:21;;;;;;;40.20;27.95;;;;;;;18.66;100.00;98691.56;5093934;28;20048;-77
2022/08/27 03:18:46;;;;;;;44.25;28.63;;;;;;;18.69;100.00;98708.41;5091401;28;20052;-77
2022/08/27 03:21:17;;;;;;;43.13;29.38;;;;;;;18.82;100.00;98704.50;5092677;28;20089;-77
2022/08/27 03:23:43;;;;;;;48.65;28.95;;;;;;;18.93;100.00;98703.59;5090834;28;20515;-77
2022/08/27 03:26:12;;;;;;;45.10;29.65;;;;;;;18.98;100.00;98705.59;5090042;28;20778;-77
2022/08/27 03:28:39;;;;;;;42.35;28.42;;;;;;;18.93;100.00;98705.53;5092492;28;20059;-77
2022/08/27 03:31:07;;;;;;;44.30;28.40;;;;;;;18.80;100.00;98698.41;5091148;28;20044;-77
2022/08/27 03:33:37;;;;;;;45.92;27.52;;;;;;;18.63;100.00;98697.56;5091594;28;20048;-77
2022/08/27 03:36:04;;;;;;;38.90;26.30;;;;;;;18.56;100.00;98690.31;5091741;28;20519;-77
2022/08/27 03:38:31;;;;;;;38.13;26.25;;;;;;;18.64;100.00;98690.97;5089516;28;20104;-77
2022/08/27 03:40:58;;;;;;;37.83;25.77;;;;;;;18.56;100.00;98689.47;5091462;28;20132;-77
2022/08/27 03:43:26;;;;;;;40.90;26.88;;;;;;;18.61;100.00;98694.22;5091303;28;20197;-77
2022/08/27 03:45:53;;;;;;;43.22;27.92;;;;;;;18.54;100.00;98684.22;5091090;28;20048;-77
2022/08/27 03:48:20;;;;;;;48.40;27.38;;;;;;;18.68;100.00;98678.38;5092962;28;20496;-77
2022/08/27 03:50:50;;;;;;;39.53;25.67;;;;;;;18.50;100.00;98682.19;5091831;28;20069;-77
2022/08/27 03:53:19;;;;;;;40.65;25.38;;;;;;;18.60;100.00;98696.16;5090023;28;20040;-77
2022/08/27 03:55:46;;;;;;;36.08;25.48;;;;;;;18.50;100.00;98688.56;5091757;28;20566;-77
2022/08/27 03:58:13;;;;;;;37.42;24.58;;;;;;;18.43;100.00;98678.78;5092973;28;20055;-77
2022/08/27 04:00:42;;;;;;;35.88;24.35;;;;;;;18.45;100.00;98682.13;5087782;28;20055;-77
2022/08/27 04:03:11;;;;;;;35.67;24.50;;;;;;;18.56;100.00;98686.72;5087219;28;20048;-77
2022/08/27 04:05:37;;;;;;;33.72;23.65;;;;;;;18.54;100.00;98673.19;5090907;28;20518;-77
2022/08/27 04:08:05;;;;;;;33.38;23.33;;;;;;;18.50;100.00;98687.72;5091313;28;20213;-77
2022/08/27 04:10:32;;;;;;;35.42;22.15;;;;;;;18.60;100.00;98685.13;5088246;28;20050;-77
2022/08/27 04:12:58;;;;;;;42.17;24.60;;;;;;;18.56;100.00;98694.97;5092090;28;20048;-77
2022/08/27 04:15:25;;;;;;;34.35;22.50;;;;;;;18.48;100.00;98684.38;5089926;28;20044;-77
2022/08/27 04:17:53;;;;;;;37.25;22.98;;;;;;;18.51;100.00;98686.63;5091064;28;20070;-77
2022/08/27 04:20:20;;;;;;;35.42;23.30;;;;;;;18.35;100.00;98686.38;5088209;28;20048;-77
2022/08/27 04:22:47;;;;;;;34.97;23.10;;;;;;;18.34;100.00;98689.38;5090271;28;20056;-77
2022/08/27 04:25:14;;;;;;;33.85;23.40;;;;;;;18.37;100.00;98691.63;5087634;28;20109;-77
2022/08/27 04:27:40;;;;;;;34.08;21.92;;;;;;;18.52;100.00;98691.88;5092685;28;20055;-77
2022/08/27 04:30:09;;;;;;;34.58;22.85;;;;;;;18.43;100.00;98704.41;5088628;28;20086;-77
2022/08/27 04:32:36;;;;;;;35.03;22.90;;;;;;;18.33;100.00;98693.19;5089387;28;20044;-77
2022/08/27 04:35:05;;;;;;;41.78;24.35;;;;;;;18.25;100.00;98685.34;5085939;28;20051;-77
2022/08/27 04:37:32;;;;;;;35.83;24.63;;;;;;;18.48;100.00;98700.91;5088241;28;20048;-77
2022/08/27 04:39:59;;;;;;;32.35;24.13;;;;;;;18.53;100.00;98700.97;5089573;28;20047;-77
2022/08/27 04:42:26;;;;;;;34.17;23.63;;;;;;;18.40;100.00;98699.38;5089477;28;20044;-77
2022/08/27 04:44:53;;;;;;;34.15;23.73;;;;;;;18.42;100.00;98704.66;5089069;28;20055;-77
2022/08/27 04:47:20;;;;;;;35.63;23.95;;;;;;;18.43;100.00;98714.53;5090416;28;20123;-77
2022/08/27 04:49:47;;;;;;;36.05;24.55;;;;;;;18.42;100.00;98710.97;5090404;28;20044;-77
2022/08/27 04:52:15;;;;;;;34.03;23.63;;;;;;;18.47;100.00;98704.72;5088481;28;20040;-77
2022/08/27 04:54:42;;;;;;;38.45;22.98;;;;;;;18.48;100.00;98704.47;5090405;28;20503;-77
2022/08/27 04:57:09;;;;;;;44.55;26.67;;;;;;;18.43;100.00;98698.88;5088731;28;20059;-77
2022/08/27 04:59:36;;;;;;;37.63;24.45;;;;;;;18.51;100.00;98701.22;5083732;28;20109;-77
2022/08/27 05:02:04;;;;;;;37.25;23.40;;;;;;;18.54;100.00;98706.22;5090442;28;20040;-77
2022/08/27 05:04:31;;;;;;;36.55;23.58;;;;;;;18.55;100.00;98701.56;5087849;28;20055;-77
2022/08/27 05:06:58;;;;;;;35.72;23.27;;;;;;;18.51;100.00;98687.47;5090065;28;20419;-77
2022/08/27 05:09:26;;;;;;;39.45;24.23;;;;;;;18.67;100.00;98705.09;5084113;28;20063;-77
2022/08/27 05:11:54;;;;;;;36.28;23.13;;;;;;;18.65;100.00;98689.91;5091278;28;20048;-77
2022/08/27 05:14:28;;;;;;;35.72;25.33;;;;;;;18.68;100.00;98701.25;5085911;28;20044;-77
2022/08/27 05:16:55;;;;;;;42.00;23.17;;;;;;;18.59;100.00;98705.47;5083682;28;20075;-77
2022/08/27 05:19:21;;;;;;;37.97;24.42;;;;;;;18.57;100.00;98700.22;5089044;28;20514;-77
2022/08/27 05:21:50;;;;;;;36.00;25.38;;;;;;;18.57;100.00;98702.97;5091416;28;21130;-77
2022/08/27 05:24:18;;;;;;;36.58;24.52;;;;;;;18.61;100.00;98697.81;5085954;28;20051;-77
2022/08/27 05:26:46;;;;;;;34.92;24.02;;;;;;;18.70;100.00;98693.56;5086909;28;20055;-77
2022/08/27 05:29:13;;;;;;;37.03;24.42;;;;;;;18.67;100.00;98696.81;5086775;28;20492;-77
2022/08/27 05:31:40;;;;;;;37.72;23.33;;;;;;;18.73;100.00;98697.75;5090704;28;20052;-77
2022/08/27 05:34:08;;;;;;;36.38;23.85;;;;;;;18.80;100.00;98701.16;5087110;28;20055;-77
2022/08/27 05:36:35;;;;;;;43.47;24.15;;;;;;;18.70;100.00;98692.75;5082352;28;20060;-77
2022/08/27 05:39:04;;;;;;;34.70;24.00;;;;;;;18.74;100.00;98696.66;5089981;28;20056;-77
2022/08/27 05:41:32;;;;;;;39.20;25.15;;;;;;;18.69;100.00;98680.88;5085611;28;20044;-77
2022/08/27 05:44:03;;;;;;;40.53;26.65;;;;;;;18.70;100.00;98679.81;5088120;28;20181;-77
2022/08/27 05:46:30;;;;;;;38.88;24.40;;;;;;;18.68;100.00;98694.91;5090939;28;20109;-77
2022/08/27 05:48:58;;;;;;;39.50;25.00;;;;;;;18.81;100.00;98699.25;5089045;28;20048;-77
2022/08/27 05:51:27;;;;;;;40.88;26.33;;;;;;;18.74;100.00;98692.00;5088672;28;20040;-77
2022/08/27 05:53:58;;;;;;;35.60;25.20;;;;;;;18.74;100.00;98699.41;5088117;28;20445;-77
2022/08/27 05:56:27;;;;;;;35.05;24.80;;;;;;;18.70;100.00;98695.50;5089565;28;20509;-77
2022/08/27 06:01:42;;;;;;;37.35;25.38;;;;;;;18.67;100.00;98698.75;5086795;28;20772;-77
2022/08/27 06:04:09;;;;;;;40.25;26.45;;;;;;;18.64;100.00;98691.81;5085629;28;20110;-77
2022/08/27 06:06:37;;;;;;;39.33;25.00;;;;;;;18.76;100.00;98694.50;5084365;28;20052;-77
2022/08/27 06:09:04;;;;;;;44.88;25.55;;;;;;;18.78;100.00;98700.59;5086479;28;20051;-77
2022/08/27 06:11:31;;;;;;;39.45;25.17;;;;;;;18.70;100.00;98690.81;5082609;28;20048;-77
2022/08/27 06:13:58;;;;;;;41.75;25.73;;;;;;;18.80;100.00;98692.06;5081620;28;20055;-77
2022/08/27 06:16:24;;;;;;;37.67;25.13;;;;;;;18.83;100.00;98702.59;5086884;28;20424;-78
2022/08/27 06:18:55;;;;;;;38.08;24.65;;;;;;;18.78;100.00;98692.31;5083538;28;20058;-77
2022/08/27 06:21:22;;;;;;;37.30;25.15;;;;;;;18.70;100.00;98695.50;5081138;28;20041;-77
2022/08/27 06:23:49;;;;;;;40.55;26.88;;;;;;;18.95;100.00;98702.53;5081129;28;20071;-77
2022/08/27 06:26:19;;;;;;;47.10;27.25;;;;;;;18.98;100.00;98697.34;5097390;28;20384;-77
2022/08/27 06:28:45;;;;;;;39.88;25.42;;;;;;;18.98;100.00;98718.56;5102519;28;20047;-77
2022/08/27 06:31:15;;;;;;;37.30;26.98;;;;;;;18.95;100.00;98708.88;5107035;28;20040;-77
2022/08/27 06:33:43;;;;;;;42.90;27.23;;;;;;;18.94;100.00;98704.47;5101708;28;20056;-77
2022/08/27 06:36:14;;;;;;;39.50;26.02;;;;;;;19.06;100.00;98713.47;5105849;28;20066;-77
2022/08/27 06:38:41;;;;;;;43.83;26.77;;;;;;;19.20;100.00;98719.47;5105041;28;20043;-77
2022/08/27 06:41:09;;;;;;;38.67;27.15;;;;;;;18.97;100.00;98711.38;5103153;28;20096;-77
2022/08/27 06:43:39;;;;;;;41.35;28.00;;;;;;;19.10;100.00;98709.13;5110035;28;20044;-77
2022/08/27 06:46:08;;;;;;;41.30;27.42;;;;;;;19.20;100.00;98724.97;5110851;28;20051;-77
2022/08/27 06:48:35;;;;;;;43.80;26.48;;;;;;;19.12;100.00;98719.91;5103712;28;20074;-77
2022/08/27 06:51:07;;;;;;;39.85;25.60;;;;;;;19.10;100.00;98716.53;5103595;28;20100;-77
2022/08/27 06:53:35;;;;;;;43.42;27.30;;;;;;;19.10;100.00;98727.56;5101671;28;20043;-77
2022/08/27 06:56:02;;;;;;;38.65;27.17;;;;;;;19.05;100.00;98724.75;5109308;28;20051;-77
2022/08/27 06:58:29;;;;;;;38.72;26.42;;;;;;;18.98;100.00;98721.31;5098169;28;20054;-77
2022/08/27 07:00:55;;;;;;;41.20;26.65;;;;;;;19.03;100.00;98719.47;5112314;28;20047;-77
2022/08/27 07:03:22;;;;;;;42.40;27.25;;;;;;;19.00;100.00;98713.63;5101080;28;20422;-77
2022/08/27 07:05:48;;;;;;;39.38;26.15;;;;;;;18.99;100.00;98723.81;5110743;28;20108;-77
2022/08/27 07:08:15;;;;;;;39.60;27.58;;;;;;;18.99;100.00;98723.00;5109618;28;20498;-77
2022/08/27 07:10:43;;;;;;;43.58;27.40;;;;;;;19.16;100.00;98728.47;5110450;28;20117;-77
2022/08/27 07:13:09;;;;;;;41.55;29.30;;;;;;;19.17;100.00;98717.22;5105926;28;20506;-77
2022/08/27 07:15:38;;;;;;;45.13;28.50;;;;;;;19.28;100.00;98734.72;5109623;28;20104;-77
2022/08/27 07:18:05;;;;;;;35.60;26.05;;;;;;;19.23;100.00;98727.22;5110578;28;20047;-77
2022/08/27 07:20:31;;;;;;;40.35;27.90;;;;;;;19.32;100.00;98735.91;5109085;28;20051;-77
2022/08/27 07:22:58;;;;;;;39.67;26.95;;;;;;;19.43;100.00;98729.44;5108018;28;20134;-77
2022/08/27 07:25:25;;;;;;;37.45;25.67;;;;;;;19.30;100.00;98726.22;5109781;28;20399;-77
2022/08/27 07:27:53;;;;;;;41.05;25.95;;;;;;;19.28;100.00;98730.06;5111222;28;20054;-77
2022/08/27 07:30:20;;;;;;;40.25;25.02;;;;;;;19.32;100.00;98726.81;5113347;28;20055;-77
2022/08/27 07:32:47;;;;;;;35.05;24.27;;;;;;;19.38;100.00;98745.09;5112293;28;20415;-77
2022/08/27 07:35:14;;;;;;;38.55;25.83;;;;;;;19.36;100.00;98753.59;5113034;28;20126;-77
2022/08/27 07:37:41;;;;;;;36.20;25.80;;;;;;;19.42;100.00;98746.22;5111058;28;20054;-77
2022/08/27 07:40:11;;;;;;;39.97;24.42;;;;;;;19.28;100.00;98738.34;5112063;28;20051;-77
2022/08/27 07:45:23;;;;;;;40.90;25.33;;;;;;;19.33;100.00;98747.75;5103762;28;20438;-77
2022/08/27 07:47:50;;;;;;;37.08;25.48;;;;;;;19.31;100.00;98755.44;5111321;28;20078;-77
2022/08/27 07:50:17;;;;;;;37.40;26.25;;;;;;;19.28;100.00;98748.50;5110227;28;20048;-77
2022/08/27 07:52:44;;;;;;;52.33;27.60;;;;;;;19.24;100.00;98748.19;5111937;28;20048;-79
2022/08/27 07:55:11;;;;;;;46.45;27.20;;;;;;;19.40;100.00;98753.94;5108021;28;20046;-78
2022/08/27 07:57:38;;;;;;;38.10;24.83;;;;;;;19.37;100.00;98744.22;5109361;28;20150;-78
2022/08/27 08:00:09;;;;;;;37.45;25.73;;;;;;;19.40;100.00;98763.03;5108881;28;20080;-78
2022/08/27 08:02:38;;;;;;;54.00;26.08;;;;;;;19.37;100.00;98757.19;5112935;28;20043;-78
2022/08/27 08:05:06;;;;;;;38.05;25.70;;;;;;;19.37;100.00;98768.22;5110312;28;20040;-77
2022/08/27 08:07:33;;;;;;;34.20;23.23;;;;;;;19.27;100.00;98763.41;5110221;28;20051;-78
2022/08/27 08:10:00;;;;;;;32.72;21.85;;;;;;;19.35;100.00;98764.88;5105893;28;20047;-78
2022/08/27 08:12:27;;;;;;;27.63;20.83;;;;;;;19.20;100.00;98771.00;5106181;28;20455;-77
2022/08/27 08:14:56;;;;;;;28.55;19.95;;;;;;;19.15;100.00;98765.38;5103167;28;20051;-78
2022/08/27 08:17:23;;;;;;;28.45;21.10;;;;;;;19.16;100.00;98761.53;5103346;28;20051;-79
2022/08/27 08:19:52;;;;;;;31.20;21.20;;;;;;;19.31;100.00;98778.31;5100675;28;20061;-80
2022/08/27 08:22:19;;;;;;;31.03;22.13;;;;;;;19.32;100.00;98773.66;5106535;28;20073;-78
2022/08/27 08:24:45;;;;;;;34.13;21.55;;;;;;;19.22;100.00;98777.06;5113256;28;20048;-80
2022/08/27 08:27:12;;;;;;;28.02;21.55;;;;;;;19.29;100.00;98780.50;5109423;28;20048;-81
2022/08/27 08:29:38;;;;;;;27.98;22.15;;;;;;;19.35;100.00;98781.44;5122034;27;20043;-77
2022/08/27 08:32:06;;;;;;;24.23;21.00;;;;;;;19.39;100.00;98783.41;5109218;28;20051;-77
2022/08/27 08:34:34;;;;;;;30.13;21.13;;;;;;;19.29;100.00;98772.22;5112246;28;20051;-76
2022/08/27 08:37:03;;;;;;;28.00;21.58;;;;;;;19.35;100.00;98776.72;5111117;28;20040;-76
2022/08/27 08:39:30;;;;;;;28.58;21.38;;;;;;;19.39;100.00;98769.63;5110963;28;20051;-76
2022/08/27 08:41:59;;;;;;;27.85;21.38;;;;;;;19.59;100.00;98779.31;5106438;28;20055;-76
2022/08/27 08:44:34;;;;;;;29.92;19.85;;;;;;;19.69;100.00;98787.72;5111546;28;20043;-76
2022/08/27 08:47:08;;;;;;;23.27;17.90;;;;;;;19.60;100.00;98778.19;5096029;28;20440;-77
2022/08/27 08:49:48;;;;;;;23.95;18.90;;;;;;;19.52;100.00;98784.16;5106841;28;20054;-77
2022/08/27 08:52:20;;;;;;;;;;;;;;;19.70;100.00;98792.13;5106578;28;20495;-77
2022/08/27 08:54:49;;;;;;;21.92;17.70;;;;;;;19.60;100.00;98786.47;5101892;28;19923;-76
2022/08/27 08:57:22;;;;;;;24.67;19.15;;;;;;;19.57;100.00;98804.38;5110281;28;20376;-76
2022/08/27 08:59:56;;;;;;;23.15;19.25;;;;;;;19.56;100.00;98799.94;5107382;28;20062;-76
2022/08/27 09:02:23;;;;;;;27.38;19.52;;;;;;;19.59;100.00;98791.16;5107694;28;20828;-76
2022/08/27 09:04:49;;;;;;;28.50;20.70;;;;;;;19.60;100.00;98798.34;5107146;28;20054;-76
2022/08/27 09:07:26;;;;;;;26.05;20.02;;;;;;;19.58;100.00;98785.91;5110926;28;20043;-76
2022/08/27 09:09:59;;;;;;;28.13;20.95;;;;;;;19.62;100.00;98795.34;5108176;28;20052;-76
2022/08/27 09:12:29;;;;;;;27.50;19.40;;;;;;;19.66;100.00;98781.88;5107406;28;20116;-76
2022/08/27 09:15:00;;;;;;;27.27;21.42;;;;;;;19.89;100.00;98784.44;5108936;28;20052;-76
2022/08/27 09:17:27;;;;;;;28.27;20.38;;;;;;;19.98;100.00;98784.84;5108295;28;20487;-75
2022/08/27 09:19:54;;;;;;;24.90;19.52;;;;;;;19.96;100.00;98792.50;5108018;27;20410;-76
2022/08/27 09:22:33;;;;;;;26.55;20.10;;;;;;;20.04;100.00;98794.00;5098384;28;20039;-76
2022/08/27 09:25:07;;;;;;;27.45;19.63;;;;;;;20.19;100.00;98791.44;5104113;28;20050;-76
2022/08/27 09:27:36;;;;;;;28.75;20.15;;;;;;;20.22;100.00;98799.22;5111638;28;20141;-76
2022/08/27 09:30:08;;;;;;;25.10;18.98;;;;;;;20.10;100.00;98781.97;5102984;28;20055;-76
2022/08/27 09:32:35;;;;;;;25.63;19.25;;;;;;;19.99;100.00;98789.25;5105142;28;20050;-76
2022/08/27 09:35:05;;;;;;;26.85;18.80;;;;;;;20.13;100.00;98798.81;5110220;28;20067;-76
2022/08/27 09:37:33;;;;;;;;;;;;;;;20.05;100.00;98803.94;5103013;28;20753;-76
2022/08/27 09:40:06;;;;;;;26.00;18.70;;;;;;;20.05;100.00;98809.47;5103622;28;19931;-77
2022/08/27 09:42:38;;;;;;;22.85;18.55;;;;;;;20.11;100.00;98800.16;5107942;28;20045;-76
2022/08/27 09:45:07;;;;;;;29.40;19.52;;;;;;;20.01;100.00;98784.31;5111114;28;20051;-76
2022/08/27 09:47:42;;;;;;;27.00;19.00;;;;;;;20.14;100.00;98794.97;5107248;28;20050;-76
2022/08/27 09:50:09;;;;;;;27.40;18.67;;;;;;;20.19;100.00;98785.06;5103893;28;20112;-76
2022/08/27 09:52:49;;;;;;;27.40;19.60;;;;;;;20.34;100.00;98794.38;5101695;28;20191;-76
2022/08/27 09:55:26;;;;;;;28.30;19.02;;;;;;;20.51;100.00;98793.47;5103955;28;20479;-76
2022/08/27 09:57:53;;;;;;;26.80;19.35;;;;;;;20.41;100.00;98777.59;5106613;28;20051;-76
2022/08/27 10:00:33;;;;;;;24.95;18.88;;;;;;;20.63;100.00;98774.00;5105613;28;20044;-76
2022/08/27 10:03:01;;;;;;;33.35;19.65;;;;;;;20.67;100.00;98778.75;5104147;28;20040;-77
2022/08/27 10:05:31;;;;;;;26.08;17.77;;;;;;;20.77;100.00;98771.66;5107484;28;20098;-76
2022/08/27 10:08:02;;;;;;;27.13;19.50;;;;;;;20.94;100.00;98782.59;5110059;28;20044;-76
2022/08/27 10:10:40;;;;;;;30.85;18.67;;;;;;;20.99;100.00;98779.91;5110924;28;20055;-77
2022/08/27 10:13:13;;;;;;;32.28;18.65;;;;;;;21.00;100.00;98773.25;5103734;28;20189;-77
2022/08/27 10:15:49;;;;;;;30.52;20.52;;;;;;;21.10;100.00;98767.81;5105544;28;20048;-77
2022/08/27 10:18:25;;;;;;;29.92;18.38;;;;;;;21.06;100.00;98779.66;5107683;28;20452;-77
2022/08/27 10:21:02;;;;;;;29.00;19.73;;;;;;;21.13;100.00;98769.22;5109490;28;20465;-77
2022/08/27 10:23:35;;;;;;;24.40;17.70;;;;;;;21.17;100.00;98771.19;5107048;28;20414;-77
2022/08/27 10:26:09;;;;;;;26.75;18.80;;;;;;;21.18;100.00;98783.06;5107584;28;20483;-77
2022/08/27 10:28:53;;;;;;;31.42;20.02;;;;;;;21.24;100.00;98776.50;5104735;28;20047;-77
2022/08/27 10:31:34;;;;;;;27.08;17.92;;;;;;;21.34;100.00;98786.81;5105685;28;20126;-78
2022/08/27 10:34:15;;;;;;;32.55;21.42;;;;;;;21.25;100.00;98788.41;5104080;28;20486;-79
2022/08/27 10:36:53;;;;;;;28.80;19.35;;;;;;;21.26;100.00;98795.56;5104755;28;20075;-79
2022/08/27 10:39:45;;;;;;;28.33;19.17;;;;;;;21.24;100.00;98783.97;5103407;28;20395;-79
2022/08/27 10:42:19;;;;;;;23.52;18.67;;;;;;;21.26;100.00;98801.09;5105709;28;20048;-80
2022/08/27 10:45:01;;;;;;;27.55;18.77;;;;;;;21.19;100.00;98802.16;5106024;28;20043;-80
2022/08/27 10:47:55;;;;;;;32.85;19.90;;;;;;;21.20;100.00;98792.78;5107615;28;20123;-80
2022/08/27 10:50:28;;;;;;;27.45;19.77;;;;;;;21.33;100.00;98783.22;5108400;28;20131;-79
2022/08/27 10:52:59;;;;;;;24.27;18.33;;;;;;;21.45;100.00;98784.94;5108242;28;20060;-79
2022/08/27 10:55:32;;;;;;;27.45;18.27;;;;;;;21.50;100.00;98774.78;5092217;28;20048;-79
2022/08/27 10:58:20;;;;;;;25.48;18.55;;;;;;;21.73;100.00;98769.94;5091409;28;20051;-79
2022/08/27 11:00:56;;;;;;;29.65;17.27;;;;;;;21.77;100.00;98787.69;5108175;28;20052;-79
2022/08/27 11:03:30;;;;;;;26.85;16.77;;;;;;;21.71;100.00;98788.75;5113323;28;20051;-79
2022/08/27 11:06:01;;;;;;;25.45;17.17;;;;;;;21.87;100.00;98803.50;5111367;28;20127;-79
2022/08/27 11:08:38;;;;;;;22.92;16.25;;;;;;;22.00;100.00;98803.03;5114433;28;20046;-80
2022/08/27 11:11:10;;;;;;;21.33;16.02;;;;;;;22.04;100.00;98801.41;5114931;28;20054;-80
2022/08/27 11:13:41;;;;;;;21.67;15.45;;;;;;;21.97;100.00;98786.13;5113586;28;20057;-79
2022/08/27 11:16:18;;;;;;;24.58;15.02;;;;;;;21.87;100.00;98804.31;5114440;28;20083;-80
2022/08/27 11:18:49;;;;;;;21.27;16.75;;;;;;;21.54;100.00;98809.13;5114586;28;20052;-80
2022/08/27 11:21:24;;;;;;;24.13;17.02;;;;;;;21.49;100.00;98792.44;5114557;28;20044;-80
2022/08/27 11:23:57;;;;;;;19.55;15.45;;;;;;;21.59;100.00;98807.47;5112347;28;20043;-80